createdAt,value
2022-12-22T00:01:14.791Z,15.3
2022-12-22T00:03:29.567Z,15.1
2022-12-22T00:05:44.460Z,15.2
2022-12-22T00:07:59.403Z,15.1
2022-12-22T00:10:14.390Z,15.1
2022-12-22T00:12:29.333Z,15.3
2022-12-22T00:14:44.554Z,15.1
2022-12-22T00:16:59.634Z,15.1
2022-12-22T00:19:14.636Z,15.1
2022-12-22T00:21:29.171Z,15.1
2022-12-22T00:23:29.208Z,15.1
2022-12-22T00:23:44.159Z,15.1
2022-12-22T00:25:59.260Z,15.2
2022-12-22T00:28:14.836Z,15.1
2022-12-22T00:30:30.624Z,14.8
2022-12-22T00:32:46.040Z,14.7
2022-12-22T00:35:00.941Z,15.1
2022-12-22T00:37:01.501Z,15
2022-12-22T00:37:16.559Z,14.9
2022-12-22T00:39:17.013Z,14.8
2022-12-22T00:39:32.062Z,15.2
2022-12-22T00:41:46.959Z,15.1
2022-12-22T00:44:02.361Z,15.3
2022-12-22T00:46:18.044Z,14.9
2022-12-22T00:48:32.979Z,15.1
2022-12-22T00:50:47.925Z,15.1
2022-12-22T00:53:02.824Z,15.1
2022-12-22T00:55:17.880Z,15.2
2022-12-22T00:57:32.867Z,15.1
2022-12-22T00:59:47.777Z,15.2
2022-12-22T01:01:47.851Z,15.2
2022-12-22T01:02:02.995Z,15
2022-12-22T01:04:02.807Z,15.1
2022-12-22T01:04:17.641Z,15.2
2022-12-22T01:06:33.181Z,15.1
2022-12-22T01:08:47.604Z,15.1
2022-12-22T01:11:02.602Z,15.1
2022-12-22T01:13:18.047Z,15.2
2022-12-22T01:15:33.811Z,14.8
2022-12-22T01:17:48.583Z,15.1
2022-12-22T01:20:04.061Z,15.1
2022-12-22T01:22:19.734Z,14.8
2022-12-22T01:24:19.593Z,15.1
2022-12-22T01:24:34.536Z,15.1
2022-12-22T01:26:49.940Z,15
2022-12-22T01:29:05.574Z,14.8
2022-12-22T01:31:20.958Z,15
2022-12-22T01:33:21.373Z,14.8
2022-12-22T01:33:36.438Z,15.1
2022-12-22T01:35:36.311Z,15.1
2022-12-22T01:35:51.354Z,15.3
2022-12-22T01:38:06.753Z,15.3
2022-12-22T01:40:22.325Z,14.7
2022-12-22T01:42:37.311Z,15.1
2022-12-22T01:44:51.697Z,15.2
2022-12-22T01:46:52.308Z,15.1
2022-12-22T01:47:07.250Z,15.2
2022-12-22T01:49:07.169Z,15.2
2022-12-22T01:49:22.223Z,15
2022-12-22T01:51:37.090Z,15.3
2022-12-22T01:53:52.214Z,15.1
2022-12-22T01:56:07.049Z,15
2022-12-22T01:58:22.108Z,15.1
2022-12-22T02:00:22.153Z,15.2
2022-12-22T02:00:36.488Z,15
2022-12-22T02:02:52.199Z,15.1
2022-12-22T02:05:07.065Z,15.1
2022-12-22T02:07:21.915Z,15.3
2022-12-22T02:09:36.951Z,15.1
2022-12-22T02:11:52.003Z,15.1
2022-12-22T02:13:51.840Z,15.1
2022-12-22T02:14:06.894Z,15
2022-12-22T02:16:21.958Z,15.3
2022-12-22T02:18:36.824Z,15.1
2022-12-22T02:20:36.838Z,15
2022-12-22T02:20:51.817Z,15.1
2022-12-22T02:23:06.850Z,15.3
2022-12-22T02:25:21.860Z,15.2
2022-12-22T02:27:37.191Z,15.2
2022-12-22T02:29:52.729Z,14.9
2022-12-22T02:32:08.115Z,15.1
2022-12-22T02:34:07.842Z,15.1
2022-12-22T02:34:22.814Z,15.1
2022-12-22T02:36:38.137Z,15.1
2022-12-22T02:38:53.026Z,15.3
2022-12-22T02:41:08.185Z,15.1
2022-12-22T02:43:23.147Z,15.3
2022-12-22T02:45:23.146Z,15.2
2022-12-22T02:45:38.373Z,15.1
2022-12-22T02:47:53.859Z,15
2022-12-22T02:49:53.329Z,15.1
2022-12-22T02:50:08.382Z,15.1
2022-12-22T02:52:23.609Z,15.3
2022-12-22T02:54:22.980Z,15.1
2022-12-22T02:54:38.504Z,14.9
2022-12-22T02:56:38.949Z,15.1
2022-12-22T02:56:53.745Z,15.1
2022-12-22T02:58:53.709Z,15.3
2022-12-22T02:59:08.662Z,15.1
2022-12-22T03:01:06.887Z,14.9
2022-12-22T03:01:22.040Z,14.8
2022-12-22T03:03:37.690Z,14.8
2022-12-22T03:05:37.430Z,14.9
2022-12-22T03:05:52.480Z,14.9
2022-12-22T03:08:08.635Z,14.9
2022-12-22T03:10:22.571Z,14.9
2022-12-22T03:12:37.593Z,14.9
2022-12-22T03:14:52.677Z,15
2022-12-22T03:17:07.640Z,15
2022-12-22T03:19:22.694Z,14.9
2022-12-22T03:21:38.275Z,15
2022-12-22T03:23:52.650Z,14.9
2022-12-22T03:26:07.723Z,14.8
2022-12-22T03:28:23.364Z,14.8
2022-12-22T03:30:37.819Z,15
2022-12-22T03:32:52.857Z,14.9
2022-12-22T03:35:07.889Z,14.9
2022-12-22T03:37:22.950Z,14.8
2022-12-22T03:39:38.009Z,15
2022-12-22T03:41:53.486Z,15
2022-12-22T03:44:08.865Z,14.8
2022-12-22T03:46:08.951Z,14.9
2022-12-22T03:46:24.077Z,14.9
2022-12-22T03:48:39.026Z,14.8
2022-12-22T03:50:54.099Z,14.9
2022-12-22T03:53:09.102Z,15
2022-12-22T03:55:24.037Z,14.9
2022-12-22T03:57:39.044Z,14.8
2022-12-22T03:59:54.101Z,14.9
2022-12-22T04:01:54.383Z,14.9
2022-12-22T04:02:09.188Z,14.9
2022-12-22T04:04:24.187Z,14.8
2022-12-22T04:06:39.311Z,15.1
2022-12-22T04:08:54.175Z,14.9
2022-12-22T04:10:54.230Z,14.9
2022-12-22T04:11:09.263Z,14.9
2022-12-22T04:13:24.941Z,15
2022-12-22T04:15:40.239Z,14.8
2022-12-22T04:17:55.200Z,14.9
2022-12-22T04:20:10.261Z,14.9
2022-12-22T04:22:25.325Z,14.9
2022-12-22T04:24:40.284Z,14.9
2022-12-22T04:26:55.363Z,14.9
2022-12-22T04:29:10.249Z,14.8
2022-12-22T04:31:25.384Z,14.9
2022-12-22T04:33:40.412Z,14.9
2022-12-22T04:35:55.345Z,14.8
2022-12-22T04:37:55.435Z,14.9
2022-12-22T04:38:10.472Z,15
2022-12-22T04:40:25.347Z,14.8
2022-12-22T04:42:41.395Z,14.7
2022-12-22T04:44:56.385Z,14.8
2022-12-22T04:46:56.359Z,15.1
2022-12-22T04:47:11.418Z,14.8
2022-12-22T04:49:26.470Z,14.9
2022-12-22T04:51:41.477Z,14.9
2022-12-22T04:53:56.732Z,14.9
2022-12-22T04:56:11.970Z,15
2022-12-22T04:58:26.975Z,14.8
2022-12-22T05:00:42.470Z,14.9
2022-12-22T05:02:57.055Z,14.9
2022-12-22T05:05:12.483Z,14.8
2022-12-22T05:07:27.601Z,14.9
2022-12-22T05:09:43.112Z,14.9
2022-12-22T05:11:59.130Z,14.6
2022-12-22T05:14:14.836Z,14.8
2022-12-22T05:16:30.397Z,14.8
2022-12-22T05:18:45.370Z,14.8
2022-12-22T05:20:45.648Z,14.8
2022-12-22T05:21:00.661Z,14.9
2022-12-22T05:23:15.695Z,14.9
2022-12-22T05:25:34.873Z,14.8
2022-12-22T05:27:46.494Z,15.1
2022-12-22T05:30:02.265Z,14.6
2022-12-22T05:32:17.874Z,14.8
2022-12-22T05:34:32.849Z,14.9
2022-12-22T05:36:48.050Z,14.8
2022-12-22T05:39:03.366Z,14.9
2022-12-22T05:41:18.365Z,15
2022-12-22T05:43:33.346Z,14.9
2022-12-22T05:45:48.750Z,14.9
2022-12-22T05:48:03.795Z,14.9
2022-12-22T05:50:18.660Z,14.8
2022-12-22T05:52:33.984Z,14.8
2022-12-22T05:54:48.997Z,14.7
2022-12-22T05:56:49.266Z,14.8
2022-12-22T05:57:04.195Z,14.9
2022-12-22T05:59:04.659Z,14.8
2022-12-22T05:59:19.251Z,15.1
2022-12-22T06:01:34.632Z,14.8
2022-12-22T06:03:34.877Z,14.8
2022-12-22T06:03:52.193Z,14.9
2022-12-22T06:06:05.486Z,14.7
2022-12-22T06:08:05.004Z,14.8
2022-12-22T06:08:19.885Z,14.8
2022-12-22T06:10:35.223Z,14.8
2022-12-22T06:12:50.240Z,14.9
2022-12-22T06:15:05.332Z,14.8
2022-12-22T06:17:21.023Z,14.8
2022-12-22T06:19:35.692Z,14.8
2022-12-22T06:21:50.989Z,14.9
2022-12-22T06:24:06.391Z,14.8
2022-12-22T06:26:21.734Z,14.9
2022-12-22T06:28:37.550Z,14.7
2022-12-22T06:30:54.406Z,14.4
2022-12-22T06:32:56.228Z,14.2
2022-12-22T06:33:11.380Z,14.4
2022-12-22T06:35:27.917Z,14.5
2022-12-22T06:37:29.640Z,14.5
2022-12-22T06:37:44.777Z,14.6
2022-12-22T06:40:01.838Z,14.3
2022-12-22T06:42:19.064Z,14.6
2022-12-22T06:44:36.405Z,14
2022-12-22T06:46:54.331Z,14.3
2022-12-22T06:49:12.945Z,14.2
2022-12-22T06:51:14.589Z,14.1
2022-12-22T06:51:29.871Z,13.9
2022-12-22T06:53:45.314Z,13.9
2022-12-22T06:56:04.255Z,13.4
2022-12-22T06:58:22.500Z,13.9
2022-12-22T07:04:43.709Z,14.1
2022-12-22T07:04:58.951Z,13.8
2022-12-22T07:07:02.843Z,13.3
2022-12-22T07:09:21.246Z,13.4
2022-12-22T07:11:54.687Z,13.1
2022-12-22T07:14:12.491Z,13.7
2022-12-22T07:16:30.329Z,13.9
2022-12-22T07:18:47.957Z,13.8
2022-12-22T07:21:05.143Z,14.1
2022-12-22T07:23:23.466Z,13.8
2022-12-22T07:25:41.203Z,13.9
2022-12-22T07:27:59.102Z,13.8
2022-12-22T07:30:01.202Z,13.9
2022-12-22T07:30:16.692Z,14.5
2022-12-22T07:32:34.302Z,14.4
2022-12-22T07:34:52.062Z,13.6
2022-12-22T07:37:09.793Z,14.1
2022-12-22T07:39:25.732Z,13.9
2022-12-22T07:39:41.979Z,13.9
2022-12-22T07:41:59.286Z,13.8
2022-12-22T09:01:09.415Z,13.9
2022-12-22T09:01:24.736Z,14.5
2022-12-22T09:03:42.142Z,14.3
2022-12-22T09:05:59.776Z,14.4
2022-12-22T09:08:17.456Z,14.4
2022-12-22T09:10:35.325Z,14.5
2022-12-22T09:12:52.803Z,14.6
2022-12-22T09:15:10.436Z,14.4
2022-12-22T09:17:27.964Z,14.6
2022-12-22T09:19:45.624Z,14.8
2022-12-22T09:22:03.252Z,14.4
2022-12-22T09:24:22.099Z,14.4
2022-12-22T09:26:41.932Z,13.1
2022-12-22T09:29:01.672Z,13
2022-12-22T09:31:25.177Z,13.1
2022-12-22T09:33:42.648Z,14.3
2022-12-22T09:36:00.408Z,14.4
2022-12-22T09:38:17.985Z,14.7
2022-12-22T09:40:20.591Z,14.4
2022-12-22T09:40:35.606Z,14.2
2022-12-22T09:42:38.025Z,14.7
2022-12-22T09:42:53.184Z,14.7
2022-12-22T09:45:15.414Z,14.4
2022-12-22T09:47:28.467Z,14.2
2022-12-22T09:49:46.158Z,14.4
2022-12-22T09:52:03.088Z,14.3
2022-12-22T09:54:22.231Z,14.2
2022-12-22T09:56:40.819Z,13.1
2022-12-22T09:58:42.982Z,14.2
2022-12-22T09:58:58.292Z,14.6
2022-12-22T10:01:16.835Z,14.9
2022-12-22T10:03:35.411Z,13.2
2022-12-22T10:05:54.013Z,14.3
2022-12-22T10:08:13.314Z,13.4
2022-12-22T10:10:36.807Z,13.9
2022-12-22T10:10:52.245Z,13.9
2022-12-22T10:13:11.794Z,13.5
2022-12-22T10:15:31.418Z,13.7
2022-12-22T10:17:50.957Z,13.6
2022-12-22T10:20:10.494Z,13.4
2022-12-22T10:22:29.493Z,13.3
2022-12-22T10:24:49.751Z,14.1
2022-12-22T10:27:41.172Z,13.9
2022-12-22T10:29:56.487Z,13.6
2022-12-22T10:32:16.228Z,13.9
2022-12-22T10:34:35.578Z,13.9
2022-12-22T10:36:55.291Z,13.7
2022-12-22T10:38:59.250Z,13.9
2022-12-22T10:39:14.713Z,14.1
2022-12-22T10:41:34.515Z,13.9
2022-12-22T10:43:53.515Z,13.6
2022-12-22T10:46:12.881Z,13.9
2022-12-22T10:48:32.569Z,13.6
2022-12-22T10:50:51.873Z,14
2022-12-22T10:53:10.780Z,14.4
2022-12-22T10:55:31.381Z,13.8
2022-12-22T10:57:34.809Z,13.6
2022-12-22T10:57:50.859Z,13.8
2022-12-22T11:00:09.515Z,13.7
2022-12-22T11:02:29.536Z,13.9
2022-12-22T11:04:48.253Z,13.4
2022-12-22T11:07:07.361Z,13.8
2022-12-22T11:09:35.918Z,13.6
2022-12-22T11:11:55.281Z,13.8
2022-12-22T11:14:14.209Z,13.6
2022-12-22T11:16:33.088Z,13.9
2022-12-22T11:18:51.607Z,13.9
2022-12-22T11:21:09.980Z,14.1
2022-12-22T11:23:28.287Z,14.4
2022-12-22T11:25:30.993Z,14.7
2022-12-22T11:25:46.339Z,14.9
2022-12-22T11:28:04.465Z,14.3
2022-12-22T11:30:06.500Z,14.8
2022-12-22T11:30:21.557Z,15
2022-12-22T11:32:38.689Z,15.2
2022-12-22T11:34:56.822Z,14.3
2022-12-22T11:37:14.808Z,14.5
2022-12-22T11:39:17.472Z,14.9
2022-12-22T11:39:32.770Z,14.8
2022-12-22T11:41:50.545Z,14.9
2022-12-22T11:44:09.224Z,14.9
2022-12-22T11:46:26.617Z,14.9
2022-12-22T11:48:29.355Z,14.7
2022-12-22T11:48:44.717Z,14.8
2022-12-22T11:51:49.912Z,14.8
2022-12-22T11:54:11.005Z,14.9
2022-12-22T11:56:26.653Z,15.1
2022-12-22T11:58:30.144Z,15
2022-12-22T11:58:45.153Z,15.4
2022-12-22T12:01:29.890Z,15.1
2022-12-22T12:03:33.849Z,15.5
2022-12-22T12:03:48.292Z,15.4
2022-12-22T12:06:05.996Z,15.1
2022-12-22T12:08:23.792Z,15.3
2022-12-22T12:10:40.947Z,15.1
2022-12-22T12:12:57.804Z,15
2022-12-22T12:14:59.178Z,14.4
2022-12-22T12:15:14.290Z,14.4
2022-12-22T12:17:30.790Z,14.5
2022-12-22T12:19:47.112Z,14.9
2022-12-22T12:22:03.436Z,14.8
2022-12-22T12:24:04.394Z,14.8
2022-12-22T12:24:18.946Z,14.8
2022-12-22T12:26:35.668Z,15
2022-12-22T12:28:51.940Z,14.8
2022-12-22T12:31:33.776Z,14.9
2022-12-22T12:33:49.768Z,14.9
2022-12-22T12:36:05.733Z,14.8
2022-12-22T12:38:56.696Z,15.1
2022-12-22T12:41:09.112Z,15.1
2022-12-22T12:43:15.937Z,15.1
2022-12-22T12:43:25.072Z,14.8
2022-12-22T12:45:40.935Z,14.9
2022-12-22T12:47:41.771Z,14.8
2022-12-22T12:47:56.921Z,14.9
2022-12-22T12:50:12.817Z,14.9
2022-12-22T12:52:28.828Z,14.8
2022-12-22T12:54:43.985Z,14.8
2022-12-22T12:57:00.413Z,14.6
2022-12-22T12:59:16.462Z,14.9
2022-12-22T13:01:17.139Z,14.8
2022-12-22T13:01:32.346Z,14.9
2022-12-22T13:04:04.465Z,14.7
2022-12-22T13:04:10.843Z,14.9
2022-12-22T13:06:26.690Z,14.8
2022-12-22T13:08:42.514Z,14.8
2022-12-22T13:11:52.459Z,14.7
2022-12-22T13:14:05.071Z,14.9
2022-12-22T13:16:05.872Z,14.9
2022-12-22T13:16:21.028Z,14.9
2022-12-22T13:18:21.765Z,14.9
2022-12-22T13:18:36.842Z,14.9
2022-12-22T13:20:52.740Z,14.9
2022-12-22T13:23:58.294Z,14.9
2022-12-22T13:26:18.220Z,14.7
2022-12-22T13:28:34.101Z,14.9
2022-12-22T13:30:49.960Z,14.9
2022-12-22T13:33:05.780Z,14.7
2022-12-22T13:35:50.062Z,14.9
2022-12-22T13:38:02.990Z,14.9
2022-12-22T13:40:18.912Z,14.9
2022-12-22T13:42:34.634Z,14.9
2022-12-22T13:44:50.790Z,15
2022-12-22T13:47:06.467Z,14.9
2022-12-22T13:49:51.454Z,14.8
2022-12-22T13:52:05.356Z,14.8
2022-12-22T13:54:43.553Z,14.9
2022-12-22T13:56:58.891Z,15
2022-12-22T13:58:59.195Z,15.3
2022-12-22T13:59:14.392Z,14.9
2022-12-22T14:01:29.866Z,15
2022-12-22T14:04:03.136Z,15.3
2022-12-22T14:06:02.468Z,14.9
2022-12-22T14:06:17.152Z,15.3
2022-12-22T14:08:32.024Z,15.2
2022-12-22T14:10:47.093Z,15.2
2022-12-22T14:13:01.800Z,15.3
2022-12-22T14:15:01.566Z,15.3
2022-12-22T14:15:16.528Z,15.1
2022-12-22T14:17:31.306Z,15.3
2022-12-22T14:19:31.268Z,15.2
2022-12-22T14:19:46.187Z,15.2
2022-12-22T14:22:01.056Z,15.3
2022-12-22T14:24:15.810Z,15.2
2022-12-22T14:26:30.915Z,15.2
2022-12-22T14:28:45.568Z,15.1
2022-12-22T14:31:00.461Z,15.2
2022-12-22T14:33:15.265Z,15.3
2022-12-22T14:35:15.142Z,15.2
2022-12-22T14:35:30.169Z,15.3
2022-12-22T14:37:45.068Z,15.2
2022-12-22T14:39:59.987Z,15.1
2022-12-22T14:42:00.109Z,15.3
2022-12-22T14:42:14.712Z,15.2
2022-12-22T14:44:14.662Z,15.3
2022-12-22T14:44:29.600Z,15.2
2022-12-22T14:46:45.163Z,15
2022-12-22T14:48:45.775Z,14.9
2022-12-22T14:49:01.314Z,15.1
2022-12-22T14:51:00.760Z,15
2022-12-22T14:51:15.601Z,15.1
2022-12-22T14:53:15.748Z,15.2
2022-12-22T14:53:30.692Z,15.1
2022-12-22T14:55:46.369Z,15.2
2022-12-22T14:58:01.972Z,14.8
2022-12-22T15:01:07.045Z,15.3
2022-12-22T15:01:22.190Z,15.3
2022-12-22T15:03:22.088Z,15.2
2022-12-22T15:03:37.080Z,15.2
2022-12-22T15:05:36.947Z,15.1
2022-12-22T15:05:51.934Z,15.1
2022-12-22T15:08:21.044Z,15.3
2022-12-22T15:08:38.497Z,14.9
2022-12-22T15:11:17.884Z,14.9
2022-12-22T15:13:18.498Z,15.2
2022-12-22T15:13:33.539Z,15.1
2022-12-22T15:15:33.433Z,15.3
2022-12-22T15:15:48.422Z,15.2
2022-12-22T15:18:03.947Z,15.1
2022-12-22T15:20:04.402Z,14.8
2022-12-22T15:20:19.385Z,15.1
2022-12-22T15:22:19.387Z,15.2
2022-12-22T15:22:34.640Z,15.2
2022-12-22T15:24:34.300Z,15.2
2022-12-22T15:24:49.480Z,15.3
2022-12-22T15:26:49.346Z,15.2
2022-12-22T15:27:04.539Z,15.2
2022-12-22T15:29:19.282Z,15.2
2022-12-22T15:31:34.366Z,15.1
2022-12-22T15:33:49.312Z,15.1
2022-12-22T15:35:49.247Z,15.2
2022-12-22T15:36:04.231Z,15.2
2022-12-22T15:38:04.152Z,15.3
2022-12-22T15:38:19.177Z,15.2
2022-12-22T15:40:34.673Z,15.2
2022-12-22T15:42:50.175Z,14.8
2022-12-22T15:45:14.359Z,15.1
2022-12-22T15:45:28.857Z,15.1
2022-12-22T15:47:28.839Z,15.1
2022-12-22T15:47:44.018Z,15.2
2022-12-22T15:49:59.011Z,15.2
2022-12-22T15:52:13.767Z,15.2
2022-12-22T15:54:14.288Z,15.3
2022-12-22T15:54:28.661Z,15.2
2022-12-22T15:56:43.636Z,15.3
2022-12-22T15:58:44.076Z,15.1
2022-12-22T15:58:59.140Z,14.9
2022-12-22T16:01:14.761Z,14.9
2022-12-22T16:03:30.284Z,15.2
2022-12-22T16:05:30.767Z,14.9
2022-12-22T16:05:45.709Z,15
2022-12-22T16:08:01.178Z,15.2
2022-12-22T16:10:16.729Z,15
2022-12-22T16:12:31.668Z,15.1
2022-12-22T16:14:50.441Z,15.3
2022-12-22T16:17:02.259Z,15.3
2022-12-22T16:19:03.073Z,14.8
2022-12-22T16:19:18.083Z,14.9
2022-12-22T16:21:33.615Z,14.8
2022-12-22T16:23:49.074Z,15.2
2022-12-22T16:26:04.581Z,14.8
2022-12-22T16:28:20.055Z,15.2
2022-12-22T16:30:35.484Z,14.8
2022-12-22T16:32:35.545Z,15.2
2022-12-22T16:32:50.727Z,15.3
2022-12-22T16:35:05.530Z,15.3
2022-12-22T16:37:20.914Z,15.1
2022-12-22T16:39:36.413Z,14.9
2022-12-22T16:41:59.771Z,15.1
2022-12-22T16:45:29.849Z,14.9
2022-12-22T16:47:44.992Z,15.3
2022-12-22T16:49:59.892Z,15.2
2022-12-22T16:51:59.885Z,15.1
2022-12-22T16:52:14.794Z,15.2
2022-12-22T16:54:30.307Z,15.2
2022-12-22T16:56:30.861Z,15.1
2022-12-22T16:56:45.234Z,15.3
2022-12-22T16:59:01.544Z,15.2
2022-12-22T17:01:15.839Z,15.3
2022-12-22T17:03:16.278Z,15.1
2022-12-22T17:03:30.982Z,15.2
2022-12-22T17:05:45.744Z,15.1
2022-12-22T17:08:00.699Z,15.1
2022-12-22T17:10:00.774Z,15.1
2022-12-22T17:10:15.670Z,15.2
2022-12-22T17:12:30.570Z,15.1
2022-12-22T17:14:45.635Z,15.1
2022-12-22T17:16:45.606Z,15
2022-12-22T17:17:00.581Z,15
2022-12-22T17:19:16.041Z,15.1
2022-12-22T17:21:30.539Z,15.1
2022-12-22T17:23:45.578Z,15.1
2022-12-22T17:26:00.705Z,15.2
2022-12-22T17:28:15.506Z,15.1
2022-12-22T17:30:30.460Z,15.1
2022-12-22T17:32:30.439Z,15.1
2022-12-22T17:32:45.772Z,15.2
2022-12-22T17:35:00.419Z,15.3
2022-12-22T17:37:00.405Z,15.2
2022-12-22T17:37:15.372Z,15.1
2022-12-22T17:39:30.955Z,15.2
2022-12-22T17:41:50.542Z,14.7
2022-12-22T17:44:01.392Z,15.3
2022-12-22T17:46:01.578Z,15.1
2022-12-22T17:46:16.507Z,15.1
2022-12-22T17:48:31.973Z,15.2
2022-12-22T17:50:47.368Z,14.7
2022-12-22T17:53:02.397Z,15.1
2022-12-22T17:55:17.523Z,15.3
2022-12-22T17:57:55.104Z,15.3
2022-12-22T17:59:54.862Z,15.4
2022-12-22T18:00:14.417Z,15.1
2022-12-22T18:02:25.201Z,15.2
2022-12-22T18:04:40.040Z,15.1
2022-12-22T18:06:55.300Z,15.2
2022-12-22T18:08:55.403Z,15.3
2022-12-22T18:09:10.278Z,15.3
2022-12-22T18:11:26.100Z,15.1
2022-12-22T18:13:41.585Z,14.9
2022-12-22T18:15:56.525Z,15.1
2022-12-22T18:18:11.694Z,15.2
2022-12-22T18:20:27.044Z,15.1
2022-12-22T18:22:42.082Z,15.1
2022-12-22T18:24:57.003Z,15.3
2022-12-22T18:27:12.099Z,15.3
2022-12-22T18:29:27.172Z,15.1
2022-12-22T18:31:42.403Z,15.1
2022-12-22T18:33:57.429Z,15.4
2022-12-22T18:36:12.647Z,15.3
2022-12-22T18:38:27.637Z,15.3
2022-12-22T18:40:42.666Z,15.3
2022-12-22T18:42:57.796Z,15.3
2022-12-22T18:45:13.354Z,15.3
2022-12-22T18:47:29.142Z,14.8
2022-12-22T18:49:29.468Z,15.1
2022-12-22T18:49:44.703Z,14.9
2022-12-22T18:52:00.232Z,14.8
2022-12-22T18:54:19.928Z,15.1
2022-12-22T18:56:30.458Z,15.1
2022-12-22T18:58:30.497Z,15.1
2022-12-22T18:58:45.575Z,15
2022-12-22T19:01:00.563Z,15.3
2022-12-22T19:03:16.629Z,15.2
2022-12-22T19:05:31.599Z,14.7
2022-12-22T19:07:31.921Z,15.2
2022-12-22T19:07:47.050Z,15
2022-12-22T19:09:47.057Z,15.2
2022-12-22T19:10:01.962Z,15.1
2022-12-22T19:12:17.121Z,15.2
2022-12-22T19:14:17.595Z,15.3
2022-12-22T19:14:32.659Z,14.7
2022-12-22T19:16:48.838Z,14.8
2022-12-22T19:19:03.421Z,15.1
2022-12-22T19:21:03.431Z,15.2
2022-12-22T19:21:18.666Z,15.1
2022-12-22T19:23:34.365Z,15
2022-12-22T19:25:50.046Z,14.9
2022-12-22T19:28:05.905Z,15
2022-12-22T19:30:21.151Z,15.2
2022-12-22T19:32:37.350Z,14.9
2022-12-22T19:34:52.924Z,14.8
2022-12-22T19:37:08.648Z,14.8
2022-12-22T19:39:23.553Z,15.3
2022-12-22T19:41:23.888Z,15.3
2022-12-22T19:41:38.754Z,15.3
2022-12-22T19:43:39.370Z,15.2
2022-12-22T19:43:54.303Z,15.1
2022-12-22T19:46:09.878Z,14.6
2022-12-22T19:48:25.152Z,15.1
2022-12-22T19:50:40.062Z,15.3
2022-12-22T19:52:55.297Z,15.3
2022-12-22T19:55:10.267Z,15.3
2022-12-22T19:57:10.506Z,15.3
2022-12-22T19:57:25.494Z,15.1
2022-12-22T19:59:40.577Z,15.1
2022-12-22T20:01:41.011Z,15.1
2022-12-22T20:01:55.895Z,15.2
2022-12-22T20:04:10.603Z,15.1
2022-12-22T20:06:26.435Z,15.3
2022-12-22T20:08:42.135Z,14.6
2022-12-22T20:10:58.879Z,15.2
2022-12-22T20:13:12.133Z,15.1
2022-12-22T20:15:12.058Z,15.2
2022-12-22T20:15:27.099Z,15.2
2022-12-22T20:17:42.300Z,15.3
2022-12-22T20:19:57.447Z,15.2
2022-12-22T20:22:12.573Z,15.2
2022-12-22T20:24:27.590Z,15.2
2022-12-22T20:26:43.256Z,15.2
2022-12-22T20:28:58.359Z,15.3
2022-12-22T20:31:13.929Z,14.8
2022-12-22T20:33:29.132Z,15.1
2022-12-22T20:35:44.602Z,15.3
2022-12-22T20:38:00.380Z,14.7
2022-12-22T20:40:00.652Z,15.3
2022-12-22T20:40:15.718Z,14.7
2022-12-22T20:42:16.413Z,14.7
2022-12-22T20:42:31.404Z,15
2022-12-22T20:45:01.801Z,15.1
2022-12-22T20:47:06.032Z,15.1
2022-12-22T20:49:21.149Z,15.3
2022-12-22T20:51:21.048Z,15.2
2022-12-22T20:51:36.007Z,14.9
2022-12-22T20:53:36.058Z,15.1
2022-12-22T20:53:51.231Z,15.2
2022-12-22T20:56:06.899Z,15.3
2022-12-22T20:58:21.509Z,15
2022-12-22T21:01:23.068Z,15
2022-12-22T21:03:38.638Z,15
2022-12-22T21:05:38.103Z,15.1
2022-12-22T21:05:53.140Z,15.2
2022-12-22T21:08:08.235Z,15
2022-12-22T21:10:08.705Z,15.3
2022-12-22T21:10:23.118Z,15
2022-12-22T21:12:39.214Z,14.8
2022-12-22T21:14:54.281Z,15
2022-12-22T21:17:09.350Z,15.2
2022-12-22T21:19:24.283Z,15.1
2022-12-22T21:21:39.907Z,15.1
2022-12-22T21:23:55.662Z,14.6
2022-12-22T21:26:10.421Z,15.3
2022-12-22T21:28:10.413Z,15.3
2022-12-22T21:28:25.494Z,15.1
2022-12-22T21:30:41.029Z,15.1
2022-12-22T21:32:56.814Z,14.6
2022-12-22T21:35:12.767Z,14.6
2022-12-22T21:37:28.297Z,14.8
2022-12-22T21:39:43.133Z,15.1
2022-12-22T21:41:58.175Z,15.1
2022-12-22T21:44:13.562Z,15.2
2022-12-22T21:46:28.360Z,15.3
2022-12-22T21:48:43.393Z,15.1
2022-12-22T21:50:58.495Z,15
2022-12-22T21:52:58.400Z,15.1
2022-12-22T21:53:18.140Z,15.3
2022-12-22T21:55:29.126Z,15.2
2022-12-22T21:57:44.433Z,14.7
2022-12-22T21:59:44.728Z,15.3
2022-12-22T21:59:59.554Z,15.4
2022-12-22T22:02:14.609Z,15.3
2022-12-22T22:04:29.617Z,15.1
2022-12-22T22:06:44.626Z,14.9
2022-12-22T22:09:00.129Z,15.2
2022-12-22T22:11:15.704Z,14.8
2022-12-22T22:13:30.796Z,15
2022-12-22T22:15:45.855Z,15.1
2022-12-22T22:18:06.369Z,15.3
2022-12-22T22:20:16.046Z,15
2022-12-22T22:22:31.495Z,15.3
2022-12-22T22:24:31.973Z,14.8
2022-12-22T22:24:46.999Z,15
2022-12-22T22:27:02.029Z,15.2
2022-12-22T22:29:17.051Z,15
2022-12-22T22:31:32.161Z,14.9
2022-12-22T22:33:47.064Z,15
2022-12-22T22:35:47.494Z,15.1
2022-12-22T22:36:05.722Z,15.1
2022-12-22T22:38:02.194Z,15.1
2022-12-22T22:38:17.216Z,15
2022-12-22T22:40:17.298Z,15.1
2022-12-22T22:40:32.307Z,15
2022-12-22T22:42:47.385Z,15.1
2022-12-22T22:45:02.398Z,15.1
2022-12-22T22:47:17.467Z,15.2
2022-12-22T22:49:32.681Z,15
2022-12-22T22:51:32.669Z,15.1
2022-12-22T22:51:47.759Z,15.1
2022-12-22T22:53:48.114Z,15.1
2022-12-22T22:54:02.682Z,15.1
2022-12-22T22:56:18.259Z,15.1
2022-12-22T22:58:34.059Z,14.8
2022-12-22T23:00:49.741Z,14.6
2022-12-22T23:03:05.151Z,15.2
2022-12-22T23:05:22.825Z,14.9
2022-12-22T23:07:20.632Z,15
2022-12-22T23:07:35.643Z,15
2022-12-22T23:09:35.660Z,15.1
2022-12-22T23:09:50.611Z,15
2022-12-22T23:12:06.354Z,15.2
2022-12-22T23:14:21.925Z,14.8
2022-12-22T23:16:22.277Z,15.1
2022-12-22T23:16:38.541Z,15.1
2022-12-22T23:18:52.191Z,15.1
2022-12-22T23:21:07.681Z,14.9
2022-12-22T23:23:22.608Z,15.1
2022-12-22T23:25:38.360Z,15.1
2022-12-22T23:27:38.922Z,14.6
2022-12-22T23:27:54.419Z,15.1
2022-12-22T23:29:54.031Z,15.1
2022-12-22T23:30:08.897Z,15
2022-12-22T23:32:24.295Z,14.9
2022-12-22T23:34:39.273Z,15.1
2022-12-22T23:36:54.620Z,15.1
2022-12-22T23:39:10.127Z,15.2
2022-12-22T23:41:38.296Z,14.7
2022-12-22T23:41:53.594Z,15.1
2022-12-22T23:44:08.322Z,15.1
2022-12-22T23:46:23.657Z,15.1
2022-12-22T23:48:38.799Z,15.1
2022-12-22T23:50:54.039Z,15
2022-12-22T23:53:08.962Z,15.1
2022-12-22T23:55:09.134Z,15.1
2022-12-22T23:55:24.168Z,15.1
2022-12-22T23:57:24.405Z,15.1
2022-12-22T23:57:39.407Z,15.1
2022-12-22T23:59:39.432Z,15.1
2022-12-22T23:59:54.476Z,15
